KIMS

Madison Municipal Airport

Madison, Indiana, USA
METAR KIMS 180835Z AUTO 16003KT 2SM OVC004 05/04 A3010 RMK AO1
Observed Flight Rules
Dec-18 @ 08:35 UTC (22 minutes ago) Instrument Flight Rules
Wind Visibility Clouds
160° at 3 knots 2 miles
  • Overcast at 400' AGL
Temperatures Readings
Current 5°C / 41°F
Dewpoint 4°C / 39°F
Humidity 93%
Altimeter 30.1" Hg
Pressure 1019 hPa
Elevation 250
METAR KIMS 180835Z AUTO 16003KT 2SM OVC004 05/04 A3010 RMK AO1
Observed Flight Rules
Dec-18 @ 08:35 UTC
(22 minutes ago)
LIFR
Wind Visibility
160° at 3 knots 2 miles
Clouds
  • Overcast at 400' AGL
Temperature Dewpoint
5°C / 41°F 4°C / 39°F
Humidity Altimeter Pressure
93% 30.1" Hg 1019 hPa